Time;durP1;ratioP1;P1;durP2;ratioP2;P2;SDS_P1;SDS_P2;PMS_P1;PMS_P2;Temp;Humidity;BMP_temperature;BMP_pressure;BME280_temperature;BME280_humidity;BME280_pressure;Samples;Min_cycle;Max_cycle;Signal;HPM_P1;HPM_P2
2023/09/30 00:01:25;;;;;;;20.52;4.63;;;;;;;;;;4998827;28;99232;-70
2023/09/30 00:03:51;;;;;;;7.63;3.67;;;;;;;;;;5006918;28;99941;-71
2023/09/30 00:06:18;;;;;;;16.13;4.88;;;;;;;;;;5007778;28;99335;-71
2023/09/30 00:08:45;;;;;;;14.88;4.00;;;;;;;;;;5006419;28;99236;-71
2023/09/30 00:11:14;;;;;;;12.05;4.53;;;;;;;;;;5006873;28;98923;-71
2023/09/30 00:13:41;;;;;;;8.73;4.07;;;;;;;;;;5005978;28;99307;-71
2023/09/30 00:16:07;;;;;;;14.30;4.40;;;;;;;;;;5007707;28;100351;-70
2023/09/30 00:18:34;;;;;;;15.43;4.38;;;;;;;;;;5005930;28;100860;-70
2023/09/30 00:21:00;;;;;;;13.77;3.95;;;;;;;;;;5005102;28;99943;-70
2023/09/30 00:23:27;;;;;;;14.05;3.90;;;;;;;;;;5004686;28;99018;-70
2023/09/30 00:25:54;;;;;;;13.48;4.20;;;;;;;;;;5006440;28;100435;-70
2023/09/30 00:28:20;;;;;;;10.15;4.38;;;;;;;;;;5004536;28;100124;-71
2023/09/30 00:30:47;;;;;;;14.13;5.00;;;;;;;;;;5005426;28;99283;-70
2023/09/30 00:33:14;;;;;;;9.50;3.85;;;;;;;;;;5005085;28;100210;-70
2023/09/30 00:35:40;;;;;;;11.63;4.43;;;;;;;;;;5002597;28;98994;-70
2023/09/30 00:38:08;;;;;;;10.23;4.53;;;;;;;;;;5005782;28;98691;-70
2023/09/30 00:40:35;;;;;;;12.95;4.50;;;;;;;;;;4999540;28;99380;-71
2023/09/30 00:43:01;;;;;;;10.18;4.80;;;;;;;;;;5004102;28;99426;-70
2023/09/30 00:45:28;;;;;;;8.55;4.30;;;;;;;;;;5006515;28;99319;-70
2023/09/30 00:47:55;;;;;;;9.27;4.00;;;;;;;;;;5006196;28;99158;-71
2023/09/30 00:50:22;;;;;;;15.15;4.65;;;;;;;;;;5004734;28;100960;-71
2023/09/30 00:52:48;;;;;;;17.92;5.03;;;;;;;;;;5006582;28;99629;-71
2023/09/30 00:55:16;;;;;;;11.95;5.60;;;;;;;;;;5005706;28;99503;-70
2023/09/30 00:57:44;;;;;;;7.90;5.00;;;;;;;;;;5009695;28;99398;-70
2023/09/30 01:00:11;;;;;;;9.60;5.05;;;;;;;;;;5008328;28;98140;-71
2023/09/30 01:02:40;;;;;;;18.67;5.57;;;;;;;;;;5006238;28;99563;-70
2023/09/30 01:05:07;;;;;;;10.30;5.05;;;;;;;;;;5005320;28;100228;-70
2023/09/30 01:07:35;;;;;;;11.95;5.18;;;;;;;;;;5003857;28;99311;-70
2023/09/30 01:10:02;;;;;;;10.70;5.15;;;;;;;;;;5005715;28;100015;-71
2023/09/30 01:12:28;;;;;;;13.10;5.70;;;;;;;;;;5002489;28;102966;-70
2023/09/30 01:14:59;;;;;;;12.38;5.18;;;;;;;;;;5000116;28;100828;-70
2023/09/30 01:17:26;;;;;;;23.80;6.47;;;;;;;;;;5002682;28;100671;-70
2023/09/30 01:19:52;;;;;;;13.30;5.80;;;;;;;;;;5006644;28;102338;-71
2023/09/30 01:22:19;;;;;;;14.88;6.25;;;;;;;;;;5004892;28;99385;-70
2023/09/30 01:24:47;;;;;;;12.80;6.10;;;;;;;;;;4998013;28;100382;-70
2023/09/30 01:27:16;;;;;;;11.13;6.32;;;;;;;;;;5003693;28;99438;-70
2023/09/30 01:29:43;;;;;;;13.40;5.70;;;;;;;;;;5003465;28;98806;-69
2023/09/30 01:32:09;;;;;;;11.30;5.70;;;;;;;;;;5002781;28;100077;-71
2023/09/30 01:34:36;;;;;;;17.38;6.18;;;;;;;;;;5003541;28;98785;-72
2023/09/30 01:37:03;;;;;;;17.60;6.90;;;;;;;;;;5003720;28;99140;-70
2023/09/30 01:39:33;;;;;;;15.35;7.93;;;;;;;;;;5003691;28;99223;-70
2023/09/30 01:42:00;;;;;;;16.70;6.85;;;;;;;;;;5011921;28;98906;-69
2023/09/30 01:44:27;;;;;;;14.13;7.50;;;;;;;;;;4998318;28;100266;-71
2023/09/30 01:46:54;;;;;;;15.25;7.43;;;;;;;;;;5002434;28;102090;-70
2023/09/30 01:49:24;;;;;;;19.27;7.60;;;;;;;;;;5004680;28;99085;-71
2023/09/30 01:51:50;;;;;;;18.40;7.50;;;;;;;;;;5004262;28;99015;-71
2023/09/30 01:54:17;;;;;;;15.82;7.60;;;;;;;;;;5004254;28;99967;-71
2023/09/30 01:56:44;;;;;;;14.75;7.65;;;;;;;;;;5004349;28;99611;-70
2023/09/30 01:59:10;;;;;;;18.73;7.93;;;;;;;;;;5003969;28;101700;-72
2023/09/30 02:01:37;;;;;;;12.38;7.38;;;;;;;;;;5004067;28;100508;-70
2023/09/30 02:04:05;;;;;;;17.75;7.50;;;;;;;;;;5008729;28;98622;-70
2023/09/30 02:06:32;;;;;;;17.10;8.05;;;;;;;;;;5008985;28;100449;-71
2023/09/30 02:08:58;;;;;;;11.15;7.38;;;;;;;;;;5005031;28;99716;-70
2023/09/30 02:11:25;;;;;;;14.63;7.28;;;;;;;;;;5005107;28;100295;-70
2023/09/30 02:13:51;;;;;;;15.23;7.15;;;;;;;;;;5005776;28;98821;-70
2023/09/30 02:16:18;;;;;;;9.90;6.55;;;;;;;;;;4998523;28;98881;-70
2023/09/30 02:18:44;;;;;;;17.08;7.75;;;;;;;;;;5005414;28;100006;-71
2023/09/30 02:21:11;;;;;;;16.48;7.65;;;;;;;;;;5002999;28;101798;-71
2023/09/30 02:23:38;;;;;;;12.93;7.03;;;;;;;;;;5011570;28;99604;-71
2023/09/30 02:26:04;;;;;;;19.33;7.25;;;;;;;;;;5000945;28;99462;-71
2023/09/30 02:28:32;;;;;;;16.92;7.07;;;;;;;;;;4999619;28;99721;-70
2023/09/30 02:30:59;;;;;;;12.45;6.57;;;;;;;;;;5002794;28;99112;-72
2023/09/30 02:33:26;;;;;;;17.50;7.05;;;;;;;;;;5002710;28;100994;-72
2023/09/30 02:35:52;;;;;;;14.02;7.10;;;;;;;;;;5002936;28;99162;-72
2023/09/30 02:38:20;;;;;;;15.52;7.57;;;;;;;;;;4995339;28;99463;-71
2023/09/30 02:40:48;;;;;;;12.15;6.78;;;;;;;;;;5006200;28;100163;-72
2023/09/30 02:43:14;;;;;;;18.20;8.23;;;;;;;;;;5003415;28;98887;-71
2023/09/30 02:45:41;;;;;;;15.20;7.70;;;;;;;;;;5003936;28;99687;-72
2023/09/30 02:48:08;;;;;;;13.82;8.13;;;;;;;;;;5005403;28;102117;-70
2023/09/30 02:50:35;;;;;;;17.17;7.75;;;;;;;;;;5001856;28;100349;-71
2023/09/30 02:53:01;;;;;;;13.35;7.38;;;;;;;;;;5000777;28;99642;-70
2023/09/30 02:55:28;;;;;;;13.15;7.60;;;;;;;;;;4999565;28;101548;-70
2023/09/30 02:57:54;;;;;;;19.80;8.05;;;;;;;;;;5001286;28;99214;-70
2023/09/30 03:00:24;;;;;;;15.57;8.38;;;;;;;;;;5001054;28;100800;-71
2023/09/30 03:02:52;;;;;;;20.23;8.20;;;;;;;;;;5000098;28;99847;-69
2023/09/30 03:05:19;;;;;;;11.00;8.13;;;;;;;;;;5001148;28;100243;-68
2023/09/30 03:07:46;;;;;;;17.65;8.68;;;;;;;;;;5003246;28;99912;-71
2023/09/30 03:10:17;;;;;;;18.42;8.43;;;;;;;;;;5005027;28;99645;-70
2023/09/30 03:12:47;;;;;;;17.60;8.30;;;;;;;;;;5006377;28;99647;-71
2023/09/30 03:15:14;;;;;;;16.27;8.18;;;;;;;;;;5003626;28;99114;-69
2023/09/30 03:17:41;;;;;;;16.33;8.52;;;;;;;;;;4999279;28;99365;-71
2023/09/30 03:20:11;;;;;;;17.13;8.75;;;;;;;;;;5001991;28;100174;-71
2023/09/30 03:22:38;;;;;;;14.38;9.13;;;;;;;;;;5004491;27;99085;-71
2023/09/30 03:25:06;;;;;;;16.48;8.98;;;;;;;;;;4996386;28;100661;-71
2023/09/30 03:27:33;;;;;;;17.95;8.77;;;;;;;;;;5002448;28;100159;-70
2023/09/30 03:30:03;;;;;;;18.20;9.30;;;;;;;;;;5007813;28;99179;-71
2023/09/30 03:32:30;;;;;;;16.45;7.80;;;;;;;;;;5000849;28;99771;-71
2023/09/30 03:35:00;;;;;;;17.52;8.85;;;;;;;;;;4997211;28;99679;-71
2023/09/30 03:37:27;;;;;;;19.50;9.27;;;;;;;;;;4998610;28;100314;-70
2023/09/30 03:39:54;;;;;;;18.27;8.15;;;;;;;;;;5002895;28;100145;-70
2023/09/30 03:42:21;;;;;;;11.48;8.60;;;;;;;;;;5002248;28;99355;-71
2023/09/30 03:44:51;;;;;;;18.23;9.32;;;;;;;;;;5003873;28;99994;-71
2023/09/30 03:47:18;;;;;;;15.77;8.55;;;;;;;;;;5000826;28;99153;-71
2023/09/30 03:49:45;;;;;;;14.75;8.50;;;;;;;;;;5001071;28;100231;-70
2023/09/30 03:52:11;;;;;;;17.05;9.20;;;;;;;;;;5006636;28;99234;-71
2023/09/30 03:54:41;;;;;;;19.70;9.90;;;;;;;;;;4998588;28;99460;-71
2023/09/30 03:57:12;;;;;;;14.20;9.60;;;;;;;;;;5003165;28;100153;-70
2023/09/30 03:59:39;;;;;;;22.77;10.57;;;;;;;;;;5003632;28;100208;-69
2023/09/30 04:02:06;;;;;;;19.50;10.25;;;;;;;;;;5002724;28;99821;-71
2023/09/30 04:04:34;;;;;;;18.08;9.57;;;;;;;;;;4995773;28;100546;-71
2023/09/30 04:07:00;;;;;;;21.25;10.40;;;;;;;;;;5001193;28;100028;-70
2023/09/30 04:09:27;;;;;;;15.43;9.77;;;;;;;;;;4997970;28;99982;-71
2023/09/30 04:11:53;;;;;;;27.38;10.60;;;;;;;;;;5002411;28;100219;-71
2023/09/30 04:14:21;;;;;;;24.08;11.35;;;;;;;;;;5004465;28;99034;-71
2023/09/30 04:16:49;;;;;;;17.92;11.32;;;;;;;;;;5003706;28;98532;-71
2023/09/30 04:19:16;;;;;;;15.30;11.13;;;;;;;;;;5004513;28;99235;-69
2023/09/30 04:21:42;;;;;;;22.23;10.75;;;;;;;;;;5004327;28;99717;-70
2023/09/30 04:24:09;;;;;;;23.63;11.27;;;;;;;;;;5005655;28;101527;-70
2023/09/30 04:26:36;;;;;;;25.15;11.82;;;;;;;;;;5005924;28;100751;-71
2023/09/30 04:29:04;;;;;;;17.92;11.70;;;;;;;;;;5007157;28;100478;-70
2023/09/30 04:31:31;;;;;;;24.00;11.80;;;;;;;;;;5006614;28;100648;-71
2023/09/30 04:33:57;;;;;;;21.65;11.77;;;;;;;;;;5007237;28;99165;-72
2023/09/30 04:36:25;;;;;;;22.15;11.23;;;;;;;;;;5005459;28;99330;-71
2023/09/30 04:38:51;;;;;;;20.35;11.85;;;;;;;;;;5006117;28;99153;-71
2023/09/30 04:41:18;;;;;;;25.23;12.80;;;;;;;;;;5005277;28;99605;-71
2023/09/30 04:43:47;;;;;;;18.00;11.93;;;;;;;;;;5004820;28;100225;-71
2023/09/30 04:46:14;;;;;;;26.30;13.63;;;;;;;;;;5005239;28;99042;-71
2023/09/30 04:48:40;;;;;;;24.13;12.93;;;;;;;;;;5006296;28;99277;-71
2023/09/30 04:51:08;;;;;;;27.13;14.77;;;;;;;;;;5004762;28;99867;-72
2023/09/30 04:53:35;;;;;;;24.33;12.90;;;;;;;;;;5002571;28;98940;-72
2023/09/30 04:56:02;;;;;;;27.50;14.20;;;;;;;;;;5005076;28;99943;-71
2023/09/30 04:58:29;;;;;;;21.00;13.70;;;;;;;;;;5009459;28;101140;-72
2023/09/30 05:00:56;;;;;;;29.98;13.60;;;;;;;;;;5004262;28;100167;-71
2023/09/30 05:03:26;;;;;;;19.15;13.25;;;;;;;;;;5003247;28;100364;-71
2023/09/30 05:05:56;;;;;;;21.98;12.93;;;;;;;;;;5006124;28;100548;-71
2023/09/30 05:08:24;;;;;;;24.42;14.23;;;;;;;;;;4998576;28;98884;-70
2023/09/30 05:10:51;;;;;;;24.70;13.38;;;;;;;;;;5005203;28;99773;-71
2023/09/30 05:13:18;;;;;;;26.45;12.93;;;;;;;;;;5004650;28;100940;-71
2023/09/30 05:15:45;;;;;;;21.52;13.75;;;;;;;;;;4996769;28;100687;-72
2023/09/30 05:18:12;;;;;;;25.52;14.50;;;;;;;;;;4994425;28;101670;-72
2023/09/30 05:20:38;;;;;;;21.35;14.32;;;;;;;;;;5008524;27;98513;-72
2023/09/30 05:23:06;;;;;;;23.27;14.82;;;;;;;;;;5000108;28;100414;-72
2023/09/30 05:25:33;;;;;;;23.45;13.98;;;;;;;;;;4993916;28;100592;-71
2023/09/30 05:28:00;;;;;;;23.33;13.05;;;;;;;;;;4995868;28;101033;-69
2023/09/30 05:30:26;;;;;;;33.97;14.20;;;;;;;;;;5005102;28;99769;-69
2023/09/30 05:32:54;;;;;;;29.38;14.48;;;;;;;;;;5004605;28;100262;-71
2023/09/30 05:35:22;;;;;;;28.08;14.38;;;;;;;;;;5005638;28;100127;-71
2023/09/30 05:37:52;;;;;;;23.35;14.13;;;;;;;;;;5004450;28;100875;-70
2023/09/30 05:40:22;;;;;;;36.95;15.45;;;;;;;;;;5007689;28;99816;-70
2023/09/30 05:42:50;;;;;;;29.20;14.90;;;;;;;;;;5005099;28;100807;-71
2023/09/30 05:45:17;;;;;;;28.33;14.07;;;;;;;;;;5005042;28;100581;-71
2023/09/30 05:47:44;;;;;;;19.48;13.70;;;;;;;;;;5005038;28;100206;-71
2023/09/30 05:50:17;;;;;;;24.50;15.93;;;;;;;;;;5005455;28;100454;-70
2023/09/30 05:52:45;;;;;;;20.52;13.80;;;;;;;;;;5004389;28;99494;-71
2023/09/30 05:55:12;;;;;;;23.38;14.27;;;;;;;;;;5006081;28;99791;-72
2023/09/30 05:57:38;;;;;;;29.13;13.93;;;;;;;;;;5005253;28;100330;-72
2023/09/30 06:00:28;;;;;;;23.38;14.02;;;;;;;;;;4996476;28;99016;-71
2023/09/30 06:02:55;;;;;;;33.58;15.27;;;;;;;;;;5007773;28;99437;-71
2023/09/30 06:05:30;;;;;;;30.40;14.90;;;;;;;;;;5004126;28;98927;-71
2023/09/30 06:07:57;;;;;;;26.95;15.10;;;;;;;;;;5004209;28;99531;-70
2023/09/30 06:10:25;;;;;;;27.35;14.68;;;;;;;;;;5005103;28;100178;-70
2023/09/30 06:12:56;;;;;;;25.67;15.63;;;;;;;;;;5004655;28;99250;-71
2023/09/30 06:15:25;;;;;;;24.48;14.68;;;;;;;;;;5004078;28;100340;-71
2023/09/30 06:17:53;;;;;;;19.25;14.48;;;;;;;;;;5004116;28;99213;-70
2023/09/30 06:20:22;;;;;;;26.20;14.27;;;;;;;;;;5005044;28;99169;-71
2023/09/30 06:22:53;;;;;;;26.48;14.93;;;;;;;;;;5004790;28;99523;-70
2023/09/30 06:25:21;;;;;;;25.33;14.57;;;;;;;;;;5009320;28;100238;-73
2023/09/30 06:27:48;;;;;;;38.10;16.38;;;;;;;;;;5003927;28;100910;-70
2023/09/30 06:30:19;;;;;;;24.45;14.98;;;;;;;;;;4997767;27;99250;-70
2023/09/30 06:32:45;;;;;;;18.30;13.40;;;;;;;;;;5004676;28;100195;-70
2023/09/30 06:35:12;;;;;;;31.58;15.63;;;;;;;;;;5003509;28;99033;-70
2023/09/30 06:37:40;;;;;;;24.80;15.45;;;;;;;;;;5004458;28;100699;-70
2023/09/30 06:40:08;;;;;;;22.73;13.98;;;;;;;;;;5004382;28;100456;-71
2023/09/30 06:42:39;;;;;;;31.60;15.20;;;;;;;;;;5002311;28;100147;-70
2023/09/30 06:45:06;;;;;;;20.98;12.73;;;;;;;;;;5005315;28;100767;-70
2023/09/30 06:47:33;;;;;;;24.17;12.88;;;;;;;;;;5007457;28;99769;-71
2023/09/30 06:50:07;;;;;;;27.60;14.65;;;;;;;;;;5003516;28;100452;-71
2023/09/30 06:52:35;;;;;;;23.65;14.20;;;;;;;;;;5003547;28;100656;-70
2023/09/30 06:55:04;;;;;;;30.42;16.65;;;;;;;;;;5004592;28;100960;-71
2023/09/30 06:57:34;;;;;;;23.90;15.18;;;;;;;;;;5003574;28;99364;-70
2023/09/30 07:00:03;;;;;;;19.10;13.77;;;;;;;;;;5004314;28;101194;-72
2023/09/30 07:02:30;;;;;;;23.55;14.98;;;;;;;;;;5003347;28;98957;-71
2023/09/30 07:04:57;;;;;;;30.08;15.07;;;;;;;;;;5003195;28;99477;-71
2023/09/30 07:07:23;;;;;;;33.58;16.50;;;;;;;;;;5003511;28;100226;-70
2023/09/30 07:09:50;;;;;;;23.20;15.02;;;;;;;;;;5006313;28;100334;-72
2023/09/30 07:12:16;;;;;;;26.55;14.85;;;;;;;;;;5005034;28;100540;-71
2023/09/30 07:14:43;;;;;;;29.30;15.23;;;;;;;;;;5006480;28;98781;-72
2023/09/30 07:17:09;;;;;;;26.05;14.20;;;;;;;;;;5003635;28;100953;-72
2023/09/30 07:19:36;;;;;;;21.02;14.55;;;;;;;;;;5003914;28;100270;-70
2023/09/30 07:22:02;;;;;;;22.45;14.63;;;;;;;;;;5003535;28;99096;-71
2023/09/30 07:24:30;;;;;;;26.80;14.88;;;;;;;;;;5003633;28;100215;-73
2023/09/30 07:26:58;;;;;;;19.05;13.30;;;;;;;;;;5003976;28;98616;-71
2023/09/30 07:29:26;;;;;;;26.23;13.93;;;;;;;;;;5006724;28;100041;-71
2023/09/30 07:31:52;;;;;;;22.25;12.98;;;;;;;;;;5002992;28;100070;-71
2023/09/30 07:34:18;;;;;;;19.13;12.82;;;;;;;;;;5004165;28;100186;-71
2023/09/30 07:36:46;;;;;;;18.08;12.48;;;;;;;;;;5003575;28;100306;-71
2023/09/30 07:39:12;;;;;;;20.85;10.98;;;;;;;;;;5002898;28;100676;-72
2023/09/30 07:41:39;;;;;;;16.80;11.40;;;;;;;;;;5003065;28;99428;-73
2023/09/30 07:44:05;;;;;;;22.65;11.45;;;;;;;;;;4998204;28;99588;-71
2023/09/30 07:46:32;;;;;;;20.48;11.60;;;;;;;;;;5001962;28;99915;-72
2023/09/30 07:49:00;;;;;;;19.63;11.30;;;;;;;;;;5003410;28;99628;-71
2023/09/30 07:51:26;;;;;;;19.73;10.85;;;;;;;;;;5006192;28;100842;-71
2023/09/30 07:53:53;;;;;;;18.33;10.80;;;;;;;;;;5005908;28;99971;-72
2023/09/30 07:56:20;;;;;;;21.90;11.27;;;;;;;;;;5006645;28;99810;-71
2023/09/30 07:58:46;;;;;;;20.63;10.73;;;;;;;;;;5007383;28;98817;-71
2023/09/30 08:01:12;;;;;;;21.60;11.50;;;;;;;;;;5006128;28;99411;-73
2023/09/30 08:03:39;;;;;;;13.68;9.43;;;;;;;;;;5008910;28;100169;-72
2023/09/30 08:06:07;;;;;;;14.75;8.55;;;;;;;;;;5005831;28;99317;-72
2023/09/30 08:08:34;;;;;;;16.98;9.27;;;;;;;;;;5006785;28;100697;-71
2023/09/30 08:11:00;;;;;;;12.68;8.50;;;;;;;;;;5006860;28;98991;-75
2023/09/30 08:13:29;;;;;;;13.60;8.20;;;;;;;;;;5009004;28;99620;-73
2023/09/30 08:15:55;;;;;;;13.40;8.48;;;;;;;;;;5000766;28;99280;-72
2023/09/30 08:18:22;;;;;;;14.73;7.82;;;;;;;;;;5006650;28;98944;-72
2023/09/30 08:20:49;;;;;;;14.48;8.82;;;;;;;;;;5005988;28;100266;-72
2023/09/30 08:23:15;;;;;;;12.77;7.80;;;;;;;;;;4994563;28;99909;-71
2023/09/30 08:25:42;;;;;;;14.20;8.07;;;;;;;;;;5000209;28;99934;-73
2023/09/30 08:28:09;;;;;;;13.77;8.77;;;;;;;;;;5004544;28;99853;-71
2023/09/30 08:30:36;;;;;;;13.25;7.18;;;;;;;;;;5001429;28;100698;-71
2023/09/30 08:33:05;;;;;;;13.68;7.13;;;;;;;;;;4999951;28;100260;-73
2023/09/30 08:35:36;;;;;;;11.65;6.95;;;;;;;;;;5001089;28;99086;-74
2023/09/30 08:38:03;;;;;;;10.98;7.60;;;;;;;;;;5002279;28;99458;-72
2023/09/30 08:40:30;;;;;;;12.30;6.10;;;;;;;;;;5005617;28;99038;-74
2023/09/30 08:42:57;;;;;;;12.98;6.93;;;;;;;;;;5005572;28;100413;-72
2023/09/30 08:45:24;;;;;;;17.38;7.43;;;;;;;;;;4998821;28;100244;-72
2023/09/30 08:47:51;;;;;;;11.60;7.15;;;;;;;;;;5003316;28;99548;-72
2023/09/30 08:50:18;;;;;;;16.52;6.70;;;;;;;;;;5003112;28;100186;-74
2023/09/30 08:52:44;;;;;;;14.00;6.85;;;;;;;;;;5002651;28;100232;-72
2023/09/30 08:55:12;;;;;;;9.52;6.18;;;;;;;;;;5003580;28;100743;-72
2023/09/30 08:57:40;;;;;;;13.27;6.90;;;;;;;;;;5009154;28;99149;-73
2023/09/30 09:00:12;;;;;;;17.10;7.22;;;;;;;;;;5005857;28;98593;-74
2023/09/30 09:02:40;;;;;;;11.32;6.68;;;;;;;;;;5002209;28;99999;-71
2023/09/30 09:05:07;;;;;;;15.70;8.05;;;;;;;;;;5004995;28;100319;-70
2023/09/30 09:07:34;;;;;;;17.05;6.40;;;;;;;;;;5004687;28;100470;-71
2023/09/30 09:10:05;;;;;;;8.20;5.25;;;;;;;;;;4995832;28;99332;-72
2023/09/30 09:12:33;;;;;;;10.73;5.28;;;;;;;;;;5005937;28;99947;-72
2023/09/30 09:14:59;;;;;;;10.60;5.18;;;;;;;;;;5005206;28;99335;-71
2023/09/30 09:17:52;;;;;;;10.50;4.68;;;;;;;;;;5003316;28;99355;-71
2023/09/30 09:20:20;;;;;;;11.75;4.68;;;;;;;;;;5004264;28;99284;-72
2023/09/30 09:22:53;;;;;;;15.20;5.40;;;;;;;;;;5005243;28;100640;-71
2023/09/30 09:25:22;;;;;;;11.25;4.40;;;;;;;;;;5002562;28;100059;-72
2023/09/30 09:27:50;;;;;;;7.03;3.58;;;;;;;;;;5002923;28;100280;-71
2023/09/30 09:30:17;;;;;;;7.20;4.57;;;;;;;;;;5004718;28;99219;-71
2023/09/30 09:33:04;;;;;;;10.02;4.18;;;;;;;;;;5004096;28;99595;-70
2023/09/30 09:35:35;;;;;;;9.52;3.63;;;;;;;;;;5002667;28;99326;-70
2023/09/30 09:38:01;;;;;;;7.32;4.15;;;;;;;;;;5000686;28;98818;-71
2023/09/30 09:40:32;;;;;;;13.95;4.05;;;;;;;;;;5008497;28;98980;-72
2023/09/30 09:42:59;;;;;;;8.73;4.00;;;;;;;;;;5005614;28;99920;-71
2023/09/30 09:45:27;;;;;;;8.70;4.32;;;;;;;;;;5002541;28;100150;-72
2023/09/30 09:47:54;;;;;;;9.50;4.43;;;;;;;;;;5005805;27;99634;-71
2023/09/30 09:50:21;;;;;;;9.43;3.85;;;;;;;;;;5002148;28;100629;-71
2023/09/30 09:52:50;;;;;;;13.05;3.85;;;;;;;;;;5003293;28;99226;-72
2023/09/30 09:55:18;;;;;;;14.52;4.45;;;;;;;;;;5002245;28;100357;-72
2023/09/30 09:57:44;;;;;;;4.97;2.83;;;;;;;;;;5004609;28;99326;-72
2023/09/30 10:00:14;;;;;;;15.32;5.55;;;;;;;;;;5003479;28;99324;-70
2023/09/30 10:02:41;;;;;;;9.30;3.78;;;;;;;;;;5008553;28;100035;-72
2023/09/30 10:05:08;;;;;;;10.43;3.50;;;;;;;;;;5004108;28;98954;-71
2023/09/30 10:07:39;;;;;;;8.77;3.50;;;;;;;;;;4998922;28;99176;-72
2023/09/30 10:10:13;;;;;;;11.02;3.38;;;;;;;;;;5004509;28;101063;-72
2023/09/30 10:12:39;;;;;;;6.35;3.00;;;;;;;;;;5004246;28;99910;-71
2023/09/30 10:15:24;;;;;;;5.90;2.75;;;;;;;;;;5002591;28;99913;-73
2023/09/30 10:17:58;;;;;;;6.28;3.20;;;;;;;;;;5001707;28;99851;-72
2023/09/30 10:20:29;;;;;;;10.82;3.55;;;;;;;;;;4997049;28;100103;-72
2023/09/30 10:23:14;;;;;;;17.65;4.53;;;;;;;;;;4999731;28;100611;-70
2023/09/30 10:25:41;;;;;;;5.95;2.88;;;;;;;;;;5002810;28;100494;-70
2023/09/30 10:28:26;;;;;;;8.23;3.10;;;;;;;;;;5004518;28;99983;-70
2023/09/30 10:31:12;;;;;;;6.53;3.65;;;;;;;;;;5005150;28;100143;-70
2023/09/30 10:33:57;;;;;;;7.93;2.90;;;;;;;;;;5002073;28;98929;-72
2023/09/30 10:36:35;;;;;;;8.63;2.80;;;;;;;;;;5003970;28;99836;-71
2023/09/30 10:39:02;;;;;;;6.35;2.78;;;;;;;;;;4996625;28;100561;-72
2023/09/30 10:41:45;;;;;;;9.30;3.38;;;;;;;;;;5003642;28;100127;-71
2023/09/30 10:44:28;;;;;;;7.30;2.35;;;;;;;;;;5004447;28;99034;-71
2023/09/30 10:46:55;;;;;;;8.00;2.72;;;;;;;;;;5002879;28;99921;-71
2023/09/30 10:49:24;;;;;;;9.02;2.83;;;;;;;;;;5005678;28;99378;-71
2023/09/30 10:51:51;;;;;;;5.07;2.78;;;;;;;;;;5004571;28;99793;-71
2023/09/30 10:54:24;;;;;;;9.32;3.58;;;;;;;;;;4991681;28;100343;-71
2023/09/30 10:56:52;;;;;;;7.38;3.33;;;;;;;;;;4997330;28;99254;-71
2023/09/30 10:59:19;;;;;;;12.43;3.70;;;;;;;;;;4998858;28;99571;-71
2023/09/30 11:01:46;;;;;;;5.53;2.95;;;;;;;;;;5003848;28;100428;-71
2023/09/30 11:04:12;;;;;;;8.10;3.20;;;;;;;;;;5004551;28;100186;-71
2023/09/30 11:06:39;;;;;;;3.88;2.20;;;;;;;;;;5001322;28;99691;-72
2023/09/30 11:09:08;;;;;;;13.02;2.72;;;;;;;;;;5004193;28;99918;-71
2023/09/30 11:11:36;;;;;;;9.68;2.95;;;;;;;;;;5007605;27;99554;-72
2023/09/30 11:14:05;;;;;;;5.22;2.92;;;;;;;;;;5002837;28;100030;-71
2023/09/30 11:16:43;;;;;;;8.57;3.13;;;;;;;;;;5002650;28;100752;-71
2023/09/30 11:19:11;;;;;;;5.75;2.80;;;;;;;;;;5005146;28;99637;-70
2023/09/30 11:21:38;;;;;;;9.48;2.22;;;;;;;;;;5003603;28;99992;-71
2023/09/30 11:24:05;;;;;;;6.68;2.42;;;;;;;;;;5003988;28;99996;-73
2023/09/30 11:26:32;;;;;;;11.98;3.05;;;;;;;;;;5002015;28;100187;-72
2023/09/30 11:29:07;;;;;;;7.57;2.47;;;;;;;;;;4992311;28;100250;-72
2023/09/30 11:31:37;;;;;;;6.05;2.40;;;;;;;;;;4985441;28;99679;-73
2023/09/30 11:34:07;;;;;;;5.28;2.25;;;;;;;;;;4998372;28;100494;-71
2023/09/30 11:36:34;;;;;;;7.32;2.30;;;;;;;;;;4999489;28;98892;-71
2023/09/30 11:39:04;;;;;;;5.65;2.15;;;;;;;;;;5003302;28;99438;-72
2023/09/30 11:41:37;;;;;;;5.50;2.10;;;;;;;;;;5003710;28;100069;-71
2023/09/30 11:44:10;;;;;;;7.55;2.60;;;;;;;;;;4996317;28;99870;-71
2023/09/30 11:46:55;;;;;;;13.20;3.25;;;;;;;;;;5003858;28;99354;-72
2023/09/30 11:49:35;;;;;;;4.85;2.13;;;;;;;;;;5003612;28;99852;-72
2023/09/30 11:52:03;;;;;;;8.55;2.50;;;;;;;;;;4999461;28;99874;-72
2023/09/30 11:54:32;;;;;;;5.43;2.30;;;;;;;;;;5006236;28;99353;-72
2023/09/30 11:57:00;;;;;;;9.63;2.47;;;;;;;;;;5003427;28;99173;-71
2023/09/30 11:59:27;;;;;;;9.32;2.75;;;;;;;;;;5002300;28;101604;-72
2023/09/30 12:01:55;;;;;;;9.07;2.30;;;;;;;;;;5003328;28;99919;-72
2023/09/30 12:04:39;;;;;;;6.53;1.70;;;;;;;;;;5003524;28;100112;-72
2023/09/30 12:07:10;;;;;;;8.52;2.20;;;;;;;;;;5003146;28;99358;-71
2023/09/30 12:09:37;;;;;;;3.97;2.22;;;;;;;;;;5003595;28;99056;-73
2023/09/30 12:12:09;;;;;;;7.47;2.90;;;;;;;;;;5002881;28;98765;-72
2023/09/30 12:14:37;;;;;;;11.75;2.53;;;;;;;;;;5003673;28;100504;-72
2023/09/30 12:17:03;;;;;;;5.50;2.25;;;;;;;;;;5004971;28;99995;-72
2023/09/30 12:19:30;;;;;;;6.78;2.35;;;;;;;;;;5002405;28;100283;-72
2023/09/30 12:21:58;;;;;;;3.53;2.22;;;;;;;;;;5002642;28;99926;-72
2023/09/30 12:24:26;;;;;;;6.78;2.25;;;;;;;;;;5002816;28;98959;-72
2023/09/30 12:26:54;;;;;;;3.97;2.25;;;;;;;;;;5001846;28;100713;-71
2023/09/30 12:29:21;;;;;;;10.63;2.50;;;;;;;;;;5002659;28;100468;-72
2023/09/30 12:31:49;;;;;;;8.52;3.10;;;;;;;;;;5003107;28;99903;-72
2023/09/30 12:34:19;;;;;;;5.10;2.30;;;;;;;;;;5002862;28;99654;-72
2023/09/30 12:36:52;;;;;;;6.00;2.30;;;;;;;;;;5003348;27;99537;-72
2023/09/30 12:39:23;;;;;;;5.00;2.63;;;;;;;;;;5005194;28;99217;-72
2023/09/30 12:41:52;;;;;;;6.65;2.95;;;;;;;;;;5005013;28;99306;-71
2023/09/30 12:44:22;;;;;;;8.05;2.70;;;;;;;;;;5004930;28;100027;-71
2023/09/30 12:46:51;;;;;;;6.50;2.20;;;;;;;;;;5007014;28;99359;-72
2023/09/30 12:49:18;;;;;;;3.63;1.95;;;;;;;;;;5004506;28;99365;-72
2023/09/30 12:51:45;;;;;;;6.30;2.28;;;;;;;;;;5006370;28;99960;-73
2023/09/30 12:54:14;;;;;;;5.25;2.13;;;;;;;;;;5005066;28;99298;-72
2023/09/30 12:56:42;;;;;;;4.35;1.83;;;;;;;;;;5007091;27;99627;-72
2023/09/30 12:59:11;;;;;;;3.88;2.30;;;;;;;;;;5006846;28;100239;-72
2023/09/30 13:01:38;;;;;;;6.85;1.92;;;;;;;;;;5008807;28;100730;-72
2023/09/30 13:04:07;;;;;;;5.72;2.40;;;;;;;;;;5006162;28;99905;-72
2023/09/30 13:06:35;;;;;;;8.23;2.38;;;;;;;;;;5005277;28;100901;-71
2023/09/30 13:09:04;;;;;;;4.22;2.38;;;;;;;;;;5005384;28;98989;-73
2023/09/30 13:11:31;;;;;;;7.53;2.30;;;;;;;;;;5004822;28;99038;-72
2023/09/30 13:14:01;;;;;;;9.60;2.40;;;;;;;;;;5005687;28;98565;-72
2023/09/30 13:16:29;;;;;;;6.72;2.75;;;;;;;;;;5004356;28;100368;-72
2023/09/30 13:18:56;;;;;;;13.52;2.80;;;;;;;;;;5006792;28;99432;-72
2023/09/30 13:21:22;;;;;;;5.68;2.05;;;;;;;;;;5006184;28;100259;-71
2023/09/30 13:23:49;;;;;;;5.88;2.10;;;;;;;;;;5008559;28;99440;-72
2023/09/30 13:26:15;;;;;;;4.60;2.17;;;;;;;;;;5005214;28;100412;-72
2023/09/30 13:28:42;;;;;;;6.43;2.92;;;;;;;;;;5005656;28;99085;-73
2023/09/30 13:31:08;;;;;;;6.07;1.88;;;;;;;;;;5004278;28;100072;-71
2023/09/30 13:33:35;;;;;;;7.13;2.78;;;;;;;;;;5004180;28;98748;-72
2023/09/30 13:36:02;;;;;;;8.52;2.50;;;;;;;;;;5006236;28;99913;-71
2023/09/30 13:38:29;;;;;;;10.10;2.47;;;;;;;;;;5005076;28;99807;-70
2023/09/30 13:40:56;;;;;;;8.40;2.75;;;;;;;;;;5005458;28;100134;-72
2023/09/30 13:43:22;;;;;;;6.15;2.80;;;;;;;;;;5005226;28;100038;-72
2023/09/30 13:45:49;;;;;;;7.80;2.60;;;;;;;;;;5007601;28;100026;-72
2023/09/30 13:48:16;;;;;;;8.45;2.97;;;;;;;;;;5005606;28;99305;-72
2023/09/30 13:50:42;;;;;;;6.00;2.88;;;;;;;;;;5004302;28;99169;-72
2023/09/30 13:53:09;;;;;;;8.93;2.50;;;;;;;;;;5001704;28;99453;-72
2023/09/30 13:55:37;;;;;;;7.03;2.33;;;;;;;;;;5004448;28;99420;-71
2023/09/30 13:58:04;;;;;;;8.00;2.55;;;;;;;;;;5004615;28;99965;-72
2023/09/30 14:00:31;;;;;;;6.65;2.63;;;;;;;;;;5005355;28;100191;-72
2023/09/30 14:02:59;;;;;;;10.15;3.45;;;;;;;;;;5004795;28;99477;-72
2023/09/30 14:05:25;;;;;;;7.57;2.80;;;;;;;;;;5008903;27;98978;-73
2023/09/30 14:07:52;;;;;;;9.00;3.33;;;;;;;;;;5004593;28;99116;-72
2023/09/30 14:10:18;;;;;;;9.02;2.97;;;;;;;;;;5004679;28;99866;-72
2023/09/30 14:12:45;;;;;;;12.82;3.08;;;;;;;;;;5004714;28;99745;-72
2023/09/30 14:15:12;;;;;;;10.23;3.28;;;;;;;;;;5004882;28;100140;-72
2023/09/30 14:17:39;;;;;;;12.18;3.42;;;;;;;;;;5004752;28;100385;-72
2023/09/30 14:20:06;;;;;;;13.40;2.63;;;;;;;;;;5003898;28;100796;-72
2023/09/30 14:22:33;;;;;;;9.65;2.83;;;;;;;;;;5004439;28;100209;-71
2023/09/30 14:24:59;;;;;;;11.63;3.20;;;;;;;;;;5005018;28;98935;-71
2023/09/30 14:27:26;;;;;;;5.80;2.83;;;;;;;;;;5006613;28;100356;-72
2023/09/30 14:29:53;;;;;;;13.88;3.42;;;;;;;;;;5004842;28;99858;-70
2023/09/30 14:32:19;;;;;;;9.35;3.15;;;;;;;;;;5004236;28;100584;-71